Terminal Aerodrome Forecast
Issued by NWS Twin Cities, MN

Home | Current Version | Previous Version | Graphics & Text | Print | Product List | Glossary On
Versions: 1 2 3 4 5 6 7 8 9 10 11 12 13 14 15
485
FTUS43 KMPX 192320
TAFSTC
TAF
KSTC 192320Z 2000/2024 30012KT P6SM FEW060
     FM200430 27004KT P6SM VCSH BKN050 BKN090
     FM200700 28006KT P6SM VCTS BKN050CB
      TEMPO 2007/2010 6SM SHRA BKN040
     FM201100 30004KT P6SM BKN100
     FM201700 33009KT P6SM FEW150=

USA.gov is the U.S. government's official web portal to all federal, state and local government web resources and services.